Jamestown, Colorado
Current Conditions -  °F | °C
As of 6:36 AM on Wednesday 22 Oct 2014 (Local Time) from KBDU Reporting Station
Clear Clear  
Wind Chill: 55°   Ceiling: Unl
Heat Index: 55°   Visibility: 10mi
Dew Point: 34°   Wind: 9mph
Humidity: 44%   Direction: 240°WSW
Pressure: 30.04"   Gusts: NA
Location:  40.12°N, 105.39°W
Report Text: KBDU 221236Z AUTO 24008KT 10SM CLR 13/01 A3004 RMK AO2 LTG DSNT SW
Loading
Personal Weather Stations






























Interactive Weather Map
Tropical Storm Tracking
New forecast layout! Learn more

10-Day Weather Forecast

Advertisements
Track Severe Weather on mobile